Time;durP1;ratioP1;P1;durP2;ratioP2;P2;SDS_P1;SDS_P2;PMS_P1;PMS_P2;Temp;Humidity;BMP_temperature;BMP_pressure;BME280_temperature;BME280_humidity;BME280_pressure;Samples;Min_cycle;Max_cycle;Signal;HPM_P1;HPM_P2
2022/09/02 00:01:34;;;;;;;1.58;1.10;;;;;;;20.12;23.42;101276.13;5065876;28;20044;-78
2022/09/02 00:04:06;;;;;;;1.70;1.00;;;;;;;20.11;23.82;101275.25;5061564;28;20048;-79
2022/09/02 00:06:35;;;;;;;1.87;1.13;;;;;;;20.08;23.90;101277.53;5070618;28;20072;-78
2022/09/02 00:09:06;;;;;;;1.77;1.00;;;;;;;20.09;23.82;101273.69;5069428;28;20040;-78
2022/09/02 00:11:37;;;;;;;3.33;1.45;;;;;;;20.09;23.42;101271.78;5071502;28;20071;-79
2022/09/02 00:14:09;;;;;;;2.13;1.10;;;;;;;20.09;23.88;101268.13;5069854;28;20067;-78
2022/09/02 00:16:50;;;;;;;2.75;1.23;;;;;;;20.08;23.88;101263.63;5065393;28;20060;-78
2022/09/02 00:19:20;;;;;;;1.60;1.00;;;;;;;20.07;23.49;101268.31;5084156;28;20048;-78
2022/09/02 00:21:50;;;;;;;1.80;1.02;;;;;;;20.06;23.66;101263.81;5069968;28;20064;-78
2022/09/02 00:24:18;;;;;;;2.70;1.15;;;;;;;20.05;23.82;101266.78;5065997;28;20056;-78
2022/09/02 00:26:48;;;;;;;2.40;1.20;;;;;;;20.04;23.91;101256.75;5064811;28;20158;-78
2022/09/02 00:29:17;;;;;;;1.77;1.10;;;;;;;20.03;23.53;101266.97;5066839;28;20050;-78
2022/09/02 00:31:48;;;;;;;2.20;1.02;;;;;;;20.04;23.65;101263.13;5068108;28;20569;-79
2022/09/02 00:34:17;;;;;;;2.08;1.20;;;;;;;19.95;24.02;101256.78;5072007;28;20048;-78
2022/09/02 00:36:45;;;;;;;1.63;1.05;;;;;;;19.97;24.13;101257.47;5088015;28;20044;-78
2022/09/02 00:39:14;;;;;;;2.33;1.13;;;;;;;19.96;23.62;101255.72;5070219;28;20519;-78
2022/09/02 00:41:43;;;;;;;1.75;1.23;;;;;;;19.95;23.84;101251.22;5074981;28;20055;-78
2022/09/02 00:44:15;;;;;;;2.35;1.30;;;;;;;19.94;24.09;101245.88;5084298;28;20056;-78
2022/09/02 00:46:43;;;;;;;2.72;1.10;;;;;;;19.91;23.99;101249.00;5068529;28;20544;-77
2022/09/02 00:49:18;;;;;;;2.15;1.13;;;;;;;19.92;24.49;101254.38;5074271;28;20608;-77
2022/09/02 00:51:51;;;;;;;1.30;1.00;;;;;;;19.91;23.83;101255.44;5069375;28;20121;-78
2022/09/02 00:54:22;;;;;;;1.88;1.00;;;;;;;19.89;23.92;101246.38;5073274;28;20047;-78
2022/09/02 00:56:52;;;;;;;2.58;1.10;;;;;;;19.87;24.13;101250.41;5085224;28;20152;-78
2022/09/02 00:59:28;;;;;;;4.03;1.10;;;;;;;19.85;24.28;101256.16;5062819;28;20044;-78
2022/09/02 01:01:57;;;;;;;1.40;1.10;;;;;;;19.84;24.36;101242.44;5072758;28;20769;-78
2022/09/02 01:04:28;;;;;;;1.55;1.15;;;;;;;19.83;24.25;101241.59;5069124;28;20043;-77
2022/09/02 01:06:56;;;;;;;2.33;1.10;;;;;;;19.80;24.38;101246.63;5071993;28;20127;-77
2022/09/02 01:09:25;;;;;;;2.63;1.10;;;;;;;19.80;24.12;101250.28;5066762;28;20430;-78
2022/09/02 01:11:54;;;;;;;2.17;1.10;;;;;;;19.76;24.19;101246.16;5065710;28;20491;-78
2022/09/02 01:14:23;;;;;;;2.17;1.25;;;;;;;19.77;24.24;101252.56;5078454;28;20098;-79
2022/09/02 01:16:59;;;;;;;1.90;1.15;;;;;;;19.75;24.75;101252.75;5071928;28;20090;-78
2022/09/02 01:19:36;;;;;;;1.83;1.10;;;;;;;19.73;24.92;101252.06;5073249;28;20098;-79
2022/09/02 01:22:15;;;;;;;1.85;0.82;;;;;;;19.73;24.63;101252.06;5073971;28;20071;-79
2022/09/02 01:24:44;;;;;;;2.33;1.10;;;;;;;19.69;24.47;101253.50;5072675;28;20045;-79
2022/09/02 01:27:15;;;;;;;2.40;1.23;;;;;;;19.69;24.81;101245.16;5072439;28;20036;-78
2022/09/02 01:29:43;;;;;;;2.67;1.20;;;;;;;19.66;24.51;101248.31;5073514;28;20135;-78
2022/09/02 01:32:12;;;;;;;2.85;1.30;;;;;;;19.65;24.82;101249.34;5092075;28;20562;-79
2022/09/02 01:34:41;;;;;;;2.53;1.10;;;;;;;19.64;24.70;101242.06;5075678;28;20078;-79
2022/09/02 01:37:11;;;;;;;2.67;1.25;;;;;;;19.65;25.06;101241.88;5082472;28;20050;-79
2022/09/02 01:39:40;;;;;;;3.20;1.30;;;;;;;19.61;24.82;101236.91;5071824;28;20044;-79
2022/09/02 01:42:09;;;;;;;1.63;1.10;;;;;;;19.59;24.66;101236.22;5081268;28;20143;-79
2022/09/02 01:44:42;;;;;;;1.65;1.20;;;;;;;19.57;25.07;101230.84;5066840;28;20048;-79
2022/09/02 01:47:12;;;;;;;1.55;1.08;;;;;;;19.56;24.67;101225.47;5073299;28;20392;-79
2022/09/02 01:49:41;;;;;;;2.25;1.05;;;;;;;19.54;24.69;101233.13;5076130;28;20075;-79
2022/09/02 01:52:13;;;;;;;2.00;1.00;;;;;;;19.54;25.00;101231.19;5068808;28;20048;-79
2022/09/02 01:54:43;;;;;;;1.45;1.08;;;;;;;19.50;25.15;101231.75;5070939;28;20040;-79
2022/09/02 01:57:13;;;;;;;2.78;1.10;;;;;;;19.49;25.31;101225.34;5074067;28;20060;-79
2022/09/02 01:59:43;;;;;;;1.90;1.13;;;;;;;19.48;24.81;101222.75;5078077;28;20046;-79
2022/09/02 02:02:12;;;;;;;3.22;1.10;;;;;;;19.47;25.02;101229.34;5071530;28;20048;-80
2022/09/02 02:04:41;;;;;;;2.38;1.02;;;;;;;19.47;25.42;101229.34;5060822;28;20037;-79
2022/09/02 02:07:13;;;;;;;2.38;1.25;;;;;;;19.47;25.38;101226.56;5073197;28;20047;-77
2022/09/02 02:09:42;;;;;;;1.90;1.00;;;;;;;19.42;24.96;101227.13;5062093;28;20098;-78
2022/09/02 02:12:14;;;;;;;2.45;1.10;;;;;;;19.41;24.94;101224.53;5072677;28;20086;-80
2022/09/02 02:14:42;;;;;;;2.22;1.27;;;;;;;19.40;25.60;101223.66;5080627;28;20044;-79
2022/09/02 02:17:11;;;;;;;2.10;1.00;;;;;;;19.40;25.59;101229.22;5072528;28;20045;-77
2022/09/02 02:19:40;;;;;;;1.95;0.98;;;;;;;19.41;25.45;101230.09;5071711;28;20060;-80
2022/09/02 02:22:09;;;;;;;1.58;1.13;;;;;;;19.39;25.60;101229.41;5069902;28;20040;-78
2022/09/02 02:24:39;;;;;;;1.60;1.00;;;;;;;19.39;25.63;101221.94;5072364;28;20660;-78
2022/09/02 02:27:08;;;;;;;1.75;1.08;;;;;;;19.38;25.24;101224.91;5072871;28;20127;-78
2022/09/02 02:29:36;;;;;;;1.30;0.82;;;;;;;19.37;25.44;101221.28;5077757;28;20036;-78
2022/09/02 02:32:06;;;;;;;1.83;1.02;;;;;;;19.38;25.08;101222.97;5076063;28;20058;-77
2022/09/02 02:34:35;;;;;;;1.33;0.90;;;;;;;19.37;25.33;101221.28;5065793;28;20111;-77
2022/09/02 02:37:04;;;;;;;2.10;1.10;;;;;;;19.37;25.13;101218.50;5077228;28;20085;-78
2022/09/02 02:39:33;;;;;;;1.42;1.00;;;;;;;19.38;25.64;101222.97;5063964;28;20053;-78
2022/09/02 02:42:03;;;;;;;1.95;1.08;;;;;;;19.40;25.22;101229.22;5070915;28;20116;-78
2022/09/02 02:44:31;;;;;;;1.73;1.10;;;;;;;19.38;25.62;101227.69;5062806;28;20060;-78
2022/09/02 02:47:00;;;;;;;4.25;1.58;;;;;;;19.38;25.63;101225.75;5073530;28;20127;-78
2022/09/02 02:49:29;;;;;;;2.45;1.33;;;;;;;19.38;25.70;101222.16;5051898;28;20049;-78
2022/09/02 02:51:58;;;;;;;2.33;1.40;;;;;;;19.37;25.11;101221.28;5070951;28;20498;-78
2022/09/02 02:54:27;;;;;;;1.95;1.20;;;;;;;19.39;25.13;101223.84;5064210;28;20119;-78
2022/09/02 02:57:06;;;;;;;1.88;1.10;;;;;;;19.38;25.79;101222.97;5069767;28;20080;-78
2022/09/02 02:59:35;;;;;;;2.17;1.20;;;;;;;19.35;25.39;101220.59;5071335;28;20060;-78
2022/09/02 03:02:05;;;;;;;1.60;1.00;;;;;;;19.35;25.73;101220.59;5070223;28;20392;-78
2022/09/02 03:04:35;;;;;;;2.28;1.20;;;;;;;19.33;25.45;101217.13;5069099;28;20123;-78
2022/09/02 03:07:06;;;;;;;1.50;1.00;;;;;;;19.32;25.25;101218.16;5069252;28;20135;-78
2022/09/02 03:09:35;;;;;;;1.80;1.10;;;;;;;19.31;25.54;101221.13;5069627;28;20488;-78
2022/09/02 03:12:08;;;;;;;1.95;1.10;;;;;;;19.31;25.57;101215.56;5064424;28;20059;-78
2022/09/02 03:14:36;;;;;;;2.50;1.10;;;;;;;19.28;25.74;101219.59;5073664;28;20655;-78
2022/09/02 03:17:06;;;;;;;3.25;1.10;;;;;;;19.26;25.85;101219.78;5062782;28;20044;-78
2022/09/02 03:19:34;;;;;;;1.45;0.93;;;;;;;19.26;25.94;101216.13;5069661;28;20041;-78
2022/09/02 03:22:03;;;;;;;4.50;1.20;;;;;;;19.25;25.35;101219.94;5069273;28;20127;-78
2022/09/02 03:24:33;;;;;;;1.40;0.93;;;;;;;19.24;25.56;101219.09;5063764;28;20702;-78
2022/09/02 03:27:01;;;;;;;2.05;1.23;;;;;;;19.23;25.44;101216.50;5075451;28;20068;-78
2022/09/02 03:29:32;;;;;;;2.17;1.25;;;;;;;19.22;25.84;101220.31;5067419;28;20056;-78
2022/09/02 03:32:00;;;;;;;2.10;1.30;;;;;;;19.19;25.94;101220.66;5068295;28;20056;-78
2022/09/02 03:34:31;;;;;;;2.22;1.13;;;;;;;19.19;25.49;101220.66;5070094;28;20040;-78
2022/09/02 03:37:00;;;;;;;1.58;1.10;;;;;;;19.15;25.44;101216.50;5072756;28;20388;-78
2022/09/02 03:39:29;;;;;;;2.78;1.30;;;;;;;19.13;25.59;101221.41;5064541;28;20098;-78
2022/09/02 03:41:57;;;;;;;2.28;1.20;;;;;;;19.11;25.78;101217.94;5069175;28;20124;-78
2022/09/02 03:44:28;;;;;;;1.50;1.17;;;;;;;19.08;25.72;101213.59;5070525;28;20486;-79
2022/09/02 03:46:58;;;;;;;2.55;1.10;;;;;;;19.08;26.04;101212.72;5060480;28;20717;-78
2022/09/02 03:49:27;;;;;;;2.20;1.10;;;;;;;19.03;25.71;101215.19;5064239;28;20074;-78
2022/09/02 03:51:55;;;;;;;1.70;1.10;;;;;;;19.00;25.92;101215.53;5074518;28;20071;-79
2022/09/02 03:54:24;;;;;;;2.20;1.00;;;;;;;19.00;25.98;101201.69;5069028;28;20048;-79
2022/09/02 03:56:53;;;;;;;3.33;1.30;;;;;;;18.98;26.32;101214.84;5074002;28;20029;-79
2022/09/02 03:59:23;;;;;;;2.22;1.20;;;;;;;18.97;26.07;101204.81;5076609;28;20048;-79
2022/09/02 04:01:52;;;;;;;1.67;1.10;;;;;;;18.96;26.17;101209.50;5069868;28;20184;-79
2022/09/02 04:04:23;;;;;;;2.30;1.40;;;;;;;18.97;26.12;101214.00;5063303;28;20056;-78
2022/09/02 04:06:53;;;;;;;2.13;1.20;;;;;;;18.92;26.61;101207.25;5072786;28;20028;-79
2022/09/02 04:09:22;;;;;;;2.38;1.27;;;;;;;18.93;26.02;101209.00;5065665;28;20051;-79
2022/09/02 04:11:51;;;;;;;1.77;1.30;;;;;;;18.91;26.15;101203.63;5067647;28;20040;-78
2022/09/02 04:14:19;;;;;;;2.10;1.40;;;;;;;18.90;26.10;101202.75;5067983;28;20043;-79
2022/09/02 04:21:11;;;;;;;1.70;1.10;;;;;;;18.82;26.83;101199.16;5068850;28;20047;-78
2022/09/02 04:23:40;;;;;;;1.98;1.30;;;;;;;18.78;26.86;101204.22;5072883;28;20047;-78
2022/09/02 04:26:11;;;;;;;2.05;1.20;;;;;;;18.79;26.11;101197.63;5077234;28;20128;-78
2022/09/02 04:28:40;;;;;;;2.60;1.52;;;;;;;18.79;26.32;101205.09;5070481;28;20046;-78
2022/09/02 04:31:11;;;;;;;2.17;1.25;;;;;;;18.78;26.62;101203.34;5072292;28;20032;-78
2022/09/02 04:33:41;;;;;;;3.03;1.33;;;;;;;18.73;26.36;101205.78;5067258;28;20123;-78
2022/09/02 04:36:16;;;;;;;2.92;1.35;;;;;;;18.73;27.03;101208.56;5072615;28;20098;-78
2022/09/02 04:38:49;;;;;;;2.90;1.20;;;;;;;18.70;26.51;101201.47;5064704;28;20056;-78
2022/09/02 04:41:23;;;;;;;3.65;1.50;;;;;;;18.71;26.51;101199.56;5068447;28;20475;-78
2022/09/02 04:43:56;;;;;;;3.28;1.40;;;;;;;18.67;26.51;101198.19;5069814;28;20061;-78
2022/09/02 04:46:28;;;;;;;2.13;1.30;;;;;;;18.61;26.72;101194.25;5072479;28;20040;-78
2022/09/02 04:49:03;;;;;;;2.45;1.30;;;;;;;18.61;26.87;101194.25;5068554;28;20056;-78
2022/09/02 04:51:36;;;;;;;3.88;1.70;;;;;;;18.58;26.86;101200.13;5063912;28;20041;-78
2022/09/02 04:54:06;;;;;;;3.20;1.45;;;;;;;18.53;26.90;101197.03;5063803;28;20045;-77
2022/09/02 04:56:37;;;;;;;3.50;1.60;;;;;;;18.52;26.68;101200.84;5066362;28;20059;-78
2022/09/02 04:59:08;;;;;;;1.90;1.30;;;;;;;18.48;26.71;101194.78;5066409;28;20098;-78
2022/09/02 05:01:41;;;;;;;2.67;1.48;;;;;;;18.46;27.13;101196.84;5068361;28;20052;-78
2022/09/02 05:04:17;;;;;;;2.20;1.20;;;;;;;18.43;27.19;101197.19;5065912;28;20052;-78
2022/09/02 05:06:51;;;;;;;;;;;;;;;18.13;27.45;101197.97;5062151;28;20104;-78
2022/09/02 05:09:20;;;;;;;2.08;1.08;;;;;;;18.36;27.17;101195.31;5063330;28;19924;-78
2022/09/02 05:11:57;;;;;;;2.33;1.27;;;;;;;18.38;26.97;101196.00;5064551;28;20033;-79
2022/09/02 05:14:32;;;;;;;2.75;1.35;;;;;;;18.38;27.24;101199.66;5057933;28;20454;-78
2022/09/02 05:17:04;;;;;;;;;;;;;;;18.09;27.46;101202.97;5070624;28;20090;-78
2022/09/02 05:19:39;;;;;;;2.53;1.20;;;;;;;18.33;27.03;101203.97;5068295;28;20007;-77
2022/09/02 05:22:09;;;;;;;2.05;1.23;;;;;;;18.38;27.08;101196.88;5070763;28;20040;-76
2022/09/02 05:24:42;;;;;;;3.22;1.27;;;;;;;18.36;27.03;101203.63;5071253;28;20040;-77
2022/09/02 05:27:15;;;;;;;2.72;1.20;;;;;;;18.37;27.13;101200.69;5068340;28;20140;-77
2022/09/02 05:29:45;;;;;;;2.45;1.17;;;;;;;18.34;27.10;101198.25;5063091;28;20045;-78
2022/09/02 05:32:16;;;;;;;3.22;1.30;;;;;;;18.34;27.19;101189.94;5068648;28;20048;-78
2022/09/02 05:34:47;;;;;;;2.97;1.48;;;;;;;18.35;27.47;101190.81;5085548;28;20066;-78
2022/09/02 05:37:18;;;;;;;1.77;1.20;;;;;;;18.37;27.32;101200.69;5060880;28;20052;-78
2022/09/02 05:39:48;;;;;;;2.30;1.20;;;;;;;18.35;27.74;101200.00;5072050;28;20055;-77
2022/09/02 05:42:19;;;;;;;2.30;1.42;;;;;;;18.35;27.71;101196.34;5072675;28;20040;-78
2022/09/02 05:44:51;;;;;;;1.95;1.20;;;;;;;18.35;27.25;101191.69;5058367;28;20112;-77
2022/09/02 05:47:23;;;;;;;3.38;1.38;;;;;;;18.34;27.83;101198.25;5069458;28;20044;-78
2022/09/02 05:49:53;;;;;;;3.00;1.20;;;;;;;18.37;27.39;101197.06;5084589;28;20531;-78
2022/09/02 05:52:25;;;;;;;2.03;1.42;;;;;;;18.40;27.99;101197.53;5066759;28;20032;-78
2022/09/02 05:54:55;;;;;;;2.78;1.23;;;;;;;18.37;27.86;101203.47;5066451;28;20037;-77
2022/09/02 05:57:25;;;;;;;1.65;1.20;;;;;;;18.40;27.38;101192.00;5069587;28;20059;-78
2022/09/02 05:59:57;;;;;;;2.85;1.20;;;;;;;18.42;27.90;101206.56;5069730;28;20055;-77
2022/09/02 06:02:40;;;;;;;4.07;1.38;;;;;;;18.41;27.53;101202.06;5069568;28;20076;-77
2022/09/02 06:05:13;;;;;;;2.60;1.13;;;;;;;18.45;27.53;101200.66;5067745;28;20119;-77
2022/09/02 06:07:49;;;;;;;2.38;1.30;;;;;;;18.50;27.47;101192.69;5064697;28;20037;-77
2022/09/02 06:10:21;;;;;;;1.77;1.08;;;;;;;18.53;27.91;101197.03;5070992;28;20055;-78
2022/09/02 06:12:50;;;;;;;2.35;1.20;;;;;;;18.57;27.91;101194.75;5070674;28;20052;-79
2022/09/02 06:15:22;;;;;;;3.72;1.33;;;;;;;18.56;27.58;101196.66;5068730;28;20152;-78
2022/09/02 06:17:50;;;;;;;1.98;1.15;;;;;;;18.61;27.69;101191.47;5071814;28;20036;-76
2022/09/02 06:20:19;;;;;;;2.75;1.30;;;;;;;18.66;27.59;101197.31;5076238;28;20538;-77
2022/09/02 06:22:50;;;;;;;2.65;1.42;;;;;;;18.73;27.98;101203.88;5069080;28;20045;-77
2022/09/02 06:25:20;;;;;;;2.05;1.40;;;;;;;18.74;27.46;101194.50;5070200;28;20051;-77
2022/09/02 06:27:49;;;;;;;2.22;1.15;;;;;;;18.81;27.94;101184.44;5065610;28;20116;-78
2022/09/02 06:30:18;;;;;;;2.28;1.38;;;;;;;18.84;27.48;101192.41;5060516;28;20068;-78
2022/09/02 06:32:47;;;;;;;2.83;1.30;;;;;;;18.90;27.66;101188.91;5071281;28;20171;-78
2022/09/02 06:35:19;;;;;;;;;;;;;;;18.68;28.19;101194.38;5067442;28;20036;-78
2022/09/02 06:37:48;;;;;;;3.88;1.50;;;;;;;18.99;27.12;101197.16;5072904;28;19970;-77
2022/09/02 06:40:18;;;;;;;2.80;1.40;;;;;;;19.07;27.48;101200.78;5072577;28;20131;-79
2022/09/02 06:42:49;;;;;;;3.00;1.42;;;;;;;19.13;27.69;101194.47;5072107;28;20048;-78
2022/09/02 06:45:30;;;;;;;2.38;1.48;;;;;;;19.17;27.44;101195.84;5071827;28;20045;-78
2022/09/02 06:48:02;;;;;;;2.65;1.40;;;;;;;19.22;27.35;101204.53;5065814;28;20059;-77
2022/09/02 06:50:39;;;;;;;2.13;1.20;;;;;;;19.35;27.48;101208.63;5065466;28;20037;-78
2022/09/02 06:53:10;;;;;;;3.28;1.40;;;;;;;19.35;27.17;101203.06;5065458;28;20529;-77
2022/09/02 06:55:43;;;;;;;3.83;1.70;;;;;;;19.44;27.64;101196.41;5065238;28;20361;-80
2022/09/02 06:58:12;;;;;;;;;;;;;;;19.18;27.37;101200.38;5074644;28;20056;-78
2022/09/02 07:00:42;;;;;;;2.35;1.33;;;;;;;19.48;27.01;101198.63;5073007;28;19920;-79
2022/09/02 07:06:03;;;;;;;3.45;1.30;;;;;;;19.64;27.28;101201.28;5070655;28;20036;-79
2022/09/02 07:08:33;;;;;;;2.92;1.20;;;;;;;19.65;27.06;101197.47;5069441;28;20487;-80
2022/09/02 07:11:04;;;;;;;3.55;1.30;;;;;;;19.71;27.36;101200.56;5073223;28;20052;-80
2022/09/02 07:13:34;;;;;;;2.83;1.50;;;;;;;19.75;26.90;101196.34;5062730;28;20064;-80
2022/09/02 07:16:06;;;;;;;4.00;1.40;;;;;;;19.78;27.08;101196.84;5069735;28;20502;-80
2022/09/02 07:18:35;;;;;;;3.05;1.52;;;;;;;19.80;27.09;101191.09;5069784;28;20067;-79
2022/09/02 07:21:04;;;;;;;2.35;1.30;;;;;;;19.86;27.43;101193.13;5070162;28;20685;-78
2022/09/02 07:23:33;;;;;;;2.05;1.25;;;;;;;19.89;27.06;101185.28;5084123;28;20044;-79
2022/09/02 07:26:16;;;;;;;3.03;1.50;;;;;;;19.97;27.07;101181.59;5072138;28;20040;-80
2022/09/02 07:28:47;;;;;;;1.88;1.20;;;;;;;20.04;27.18;101187.28;5070137;28;20056;-79
2022/09/02 07:31:17;;;;;;;3.65;1.42;;;;;;;20.12;27.33;101176.91;5065880;28;20108;-80
2022/09/02 07:33:47;;;;;;;2.30;1.30;;;;;;;20.22;27.05;101180.28;5070522;28;20043;-79
2022/09/02 07:36:20;;;;;;;2.80;1.23;;;;;;;20.38;27.21;101170.91;5069403;28;20419;-80
2022/09/02 07:38:52;;;;;;;3.28;1.30;;;;;;;20.56;27.60;101171.38;5070275;28;20094;-78
2022/09/02 07:41:25;;;;;;;2.10;1.25;;;;;;;20.80;27.02;101177.72;5066527;28;20538;-79
2022/09/02 07:43:54;;;;;;;1.92;1.30;;;;;;;21.00;26.92;101176.06;5057926;28;20677;-79
2022/09/02 07:46:30;;;;;;;2.38;1.58;;;;;;;21.28;26.85;101171.50;5063899;28;20041;-78
2022/09/02 07:49:02;;;;;;;2.00;1.40;;;;;;;21.53;26.68;101166.41;5069183;28;20450;-78
2022/09/02 07:51:56;;;;;;;2.95;1.40;;;;;;;21.79;25.94;101172.22;5074583;28;20044;-79
2022/09/02 07:54:25;;;;;;;;;;;;;;;21.72;26.38;101178.81;5073713;28;20055;-79
2022/09/02 07:56:57;;;;;;;1.98;1.20;;;;;;;22.25;25.69;101174.59;5068220;28;19963;-79
2022/09/02 07:59:26;;;;;;;2.15;1.40;;;;;;;22.43;25.65;101169.31;5076985;28;20044;-80
2022/09/02 08:01:57;;;;;;;2.08;1.42;;;;;;;22.57;25.09;101167.53;5073901;28;20036;-79
2022/09/02 08:04:27;;;;;;;3.15;1.40;;;;;;;22.74;24.69;101166.13;5068176;28;20039;-79
2022/09/02 08:06:56;;;;;;;2.50;1.48;;;;;;;22.82;24.60;101168.72;5071491;28;20480;-82
2022/09/02 08:09:27;;;;;;;2.60;1.40;;;;;;;22.97;24.25;101169.44;5066378;28;20048;-82
2022/09/02 08:11:59;;;;;;;2.15;1.27;;;;;;;23.07;23.98;101173.75;5058508;28;20045;-81
2022/09/02 08:14:37;;;;;;;2.60;1.50;;;;;;;23.18;24.06;101175.97;5071395;28;20063;-79
2022/09/02 08:17:11;;;;;;;2.83;1.40;;;;;;;23.18;24.18;101173.16;5081051;28;20387;-79
2022/09/02 08:19:40;;;;;;;2.95;1.48;;;;;;;23.23;23.97;101168.69;5065071;28;20055;-80
2022/09/02 08:22:09;;;;;;;6.28;1.70;;;;;;;23.29;24.25;101169.78;5072318;28;20457;-79
2022/09/02 08:24:37;;;;;;;3.25;1.30;;;;;;;23.34;23.98;101172.78;5071475;28;20041;-79
2022/09/02 08:27:08;;;;;;;4.03;1.58;;;;;;;23.38;23.79;101169.38;5071272;28;20090;-81
2022/09/02 08:29:36;;;;;;;2.28;1.42;;;;;;;23.43;23.74;101165.06;5075366;28;20060;-79
2022/09/02 08:32:05;;;;;;;2.53;1.50;;;;;;;23.46;23.84;101167.47;5070273;28;20159;-80
2022/09/02 08:34:35;;;;;;;2.63;1.50;;;;;;;23.49;23.82;101167.03;5069328;28;20058;-80
2022/09/02 08:37:05;;;;;;;2.83;1.40;;;;;;;23.51;23.76;101165.72;5059483;28;20040;-79
2022/09/02 08:39:33;;;;;;;2.60;1.50;;;;;;;23.59;23.82;101161.88;5066270;28;20068;-78
2022/09/02 08:42:08;;;;;;;2.70;1.70;;;;;;;23.66;23.56;101155.22;5071315;28;20041;-79
2022/09/02 08:44:39;;;;;;;3.15;1.40;;;;;;;23.67;23.52;101159.72;5067088;28;20462;-79
2022/09/02 08:47:16;;;;;;;2.58;1.40;;;;;;;23.76;23.47;101163.22;5067253;28;20098;-80
2022/09/02 08:49:47;;;;;;;2.33;1.25;;;;;;;23.80;23.48;101155.28;5071717;28;20052;-81
2022/09/02 08:52:22;;;;;;;2.05;1.40;;;;;;;23.83;23.00;101158.47;5080694;28;20036;-79
2022/09/02 08:54:54;;;;;;;2.92;1.25;;;;;;;23.90;23.16;101152.91;5070483;28;20044;-80
2022/09/02 08:57:25;;;;;;;3.70;1.45;;;;;;;23.92;23.61;101154.41;5081529;28;20033;-79
2022/09/02 08:59:57;;;;;;;1.90;1.40;;;;;;;23.99;23.44;101154.44;5073901;28;20071;-79
2022/09/02 09:02:34;;;;;;;2.03;1.30;;;;;;;24.05;23.57;101154.41;5069558;28;20463;-79
2022/09/02 09:05:14;;;;;;;1.73;1.13;;;;;;;24.13;22.83;101156.13;5081234;28;20041;-78
2022/09/02 09:07:54;;;;;;;2.42;1.40;;;;;;;24.19;22.78;101154.38;5070486;28;20033;-79
2022/09/02 09:10:28;;;;;;;2.35;1.48;;;;;;;24.26;22.69;101149.63;5069371;28;20040;-79
2022/09/02 09:13:22;;;;;;;3.40;1.52;;;;;;;24.31;22.46;101152.66;5057426;28;20059;-78
2022/09/02 09:15:59;;;;;;;2.85;1.40;;;;;;;24.38;22.85;101148.81;5074871;28;20036;-78
2022/09/02 09:18:37;;;;;;;3.45;1.50;;;;;;;24.45;22.54;101148.78;5072809;28;20071;-79
2022/09/02 09:21:06;;;;;;;2.40;1.40;;;;;;;24.45;22.67;101134.78;5074449;28;20066;-79
2022/09/02 09:23:39;;;;;;;2.22;1.40;;;;;;;24.51;22.62;101122.72;5067246;28;20098;-79
2022/09/02 09:26:10;;;;;;;1.73;1.13;;;;;;;24.59;22.43;101124.41;5086443;28;20472;-78
2022/09/02 09:28:42;;;;;;;2.10;1.40;;;;;;;24.64;22.32;101119.88;5071905;28;20044;-80
2022/09/02 09:31:14;;;;;;;2.42;1.38;;;;;;;24.66;22.14;101131.69;5060238;28;20063;-78
2022/09/02 09:33:56;;;;;;;1.85;1.33;;;;;;;24.73;22.02;101126.94;5074982;28;20374;-78
2022/09/02 09:36:46;;;;;;;2.53;1.50;;;;;;;24.78;22.16;101124.34;5081685;28;20161;-78
2022/09/02 09:39:21;;;;;;;2.85;1.40;;;;;;;24.93;22.00;101115.66;5065483;28;20072;-78
2022/09/02 09:41:51;;;;;;;3.50;1.50;;;;;;;24.98;21.93;101107.47;5070517;28;20042;-78
2022/09/02 09:44:39;;;;;;;3.60;1.65;;;;;;;25.05;21.18;101096.25;5068628;28;20103;-77
2022/09/02 09:47:14;;;;;;;2.28;1.20;;;;;;;25.14;21.95;101108.91;5083620;28;20049;-77
2022/09/02 09:49:46;;;;;;;2.25;1.60;;;;;;;25.20;21.60;101100.47;5069466;28;20091;-78
2022/09/02 09:52:26;;;;;;;2.70;1.45;;;;;;;25.32;20.15;101096.91;5071791;28;20041;-79
2022/09/02 09:55:23;;;;;;;2.38;1.35;;;;;;;25.32;21.07;101091.31;5078270;28;20511;-78
2022/09/02 09:58:10;;;;;;;2.47;1.40;;;;;;;25.44;21.03;101093.19;5037554;28;20048;-77
2022/09/02 10:00:40;;;;;;;2.17;1.30;;;;;;;25.54;21.10;101095.50;5071878;28;20499;-78
2022/09/02 10:03:18;;;;;;;3.25;1.30;;;;;;;25.62;21.13;101090.47;5065120;28;20053;-78
2022/09/02 10:05:47;;;;;;;3.55;1.25;;;;;;;25.68;20.71;101085.91;5065861;28;20072;-78
2022/09/02 10:08:21;;;;;;;3.67;1.45;;;;;;;25.82;19.85;101093.09;5071022;28;20042;-78
2022/09/02 10:11:01;;;;;;;2.17;1.42;;;;;;;25.94;20.00;101082.84;5071447;28;20387;-78
2022/09/02 10:13:58;;;;;;;2.15;1.35;;;;;;;26.01;19.68;101094.00;5071885;28;20127;-77
2022/09/02 10:16:42;;;;;;;2.42;1.30;;;;;;;26.08;18.85;101088.34;5061581;28;20433;-78
2022/09/02 10:19:25;;;;;;;2.03;1.35;;;;;;;26.22;19.15;101095.53;5073188;28;20044;-79
2022/09/02 10:22:44;;;;;;;1.65;1.10;;;;;;;26.23;18.99;101084.09;5078285;28;20078;-78
2022/09/02 10:25:39;;;;;;;2.17;1.40;;;;;;;26.36;18.53;101083.94;5072603;28;20549;-78
2022/09/02 10:28:21;;;;;;;1.77;1.23;;;;;;;26.46;18.38;101076.94;5064965;28;20052;-78
2022/09/02 10:30:59;;;;;;;1.75;1.00;;;;;;;26.49;18.41;101074.50;5065478;28;20491;-79
2022/09/02 10:33:42;;;;;;;2.03;1.20;;;;;;;26.54;18.08;101076.63;5066157;28;20412;-78
2022/09/02 10:36:19;;;;;;;2.67;1.42;;;;;;;26.58;17.72;101077.84;5077427;28;20048;-79
2022/09/02 10:38:52;;;;;;;1.70;1.05;;;;;;;26.54;17.57;101073.81;5070599;28;20094;-79
2022/09/02 10:41:41;;;;;;;2.45;1.30;;;;;;;26.57;16.89;101068.56;5072899;28;20055;-79
2022/09/02 10:44:32;;;;;;;1.92;1.20;;;;;;;26.53;17.30;101061.72;5068369;28;20623;-79
2022/09/02 10:47:03;;;;;;;1.80;1.10;;;;;;;26.51;17.58;101068.66;5076788;28;20052;-78
2022/09/02 10:49:52;;;;;;;1.83;1.15;;;;;;;26.49;17.58;101060.47;5071173;28;20052;-78
2022/09/02 10:52:33;;;;;;;1.52;1.00;;;;;;;26.45;17.41;101062.03;5070129;28;20086;-79
2022/09/02 10:55:13;;;;;;;2.13;1.30;;;;;;;26.41;17.26;101062.72;5072365;28;20090;-79
2022/09/02 10:57:51;;;;;;;2.28;1.30;;;;;;;26.39;16.93;101066.63;5071950;28;20484;-78
2022/09/02 11:00:22;;;;;;;1.42;1.13;;;;;;;26.33;17.37;101075.13;5078242;28;20116;-79
2022/09/02 11:03:09;;;;;;;1.95;1.30;;;;;;;26.32;17.20;101056.56;5084110;28;20042;-79
2022/09/02 11:05:48;;;;;;;2.08;1.38;;;;;;;26.25;16.96;101048.25;5070406;28;20053;-79
2022/09/02 11:08:24;;;;;;;2.70;1.25;;;;;;;26.22;17.05;101064.66;5078007;28;20063;-79
2022/09/02 11:11:05;;;;;;;1.70;1.20;;;;;;;26.11;16.86;101041.06;5077945;28;20052;-80
2022/09/02 11:13:39;;;;;;;2.88;1.27;;;;;;;26.08;16.64;101040.66;5090442;28;20047;-79
2022/09/02 11:16:14;;;;;;;1.55;1.17;;;;;;;25.99;16.40;101042.88;5068071;28;20739;-78
2022/09/02 11:18:50;;;;;;;2.15;1.20;;;;;;;25.95;16.56;101050.06;5080595;28;20070;-78
2022/09/02 11:21:31;;;;;;;1.52;1.08;;;;;;;25.93;16.68;101035.41;5076748;28;20054;-79
2022/09/02 11:24:05;;;;;;;3.00;1.20;;;;;;;25.89;17.19;101035.00;5068593;28;20153;-79
2022/09/02 11:26:39;;;;;;;2.08;1.30;;;;;;;25.90;17.12;101044.28;5072756;28;20041;-78
2022/09/02 11:29:16;;;;;;;2.53;1.10;;;;;;;25.91;16.95;101035.63;5082925;28;20044;-79
2022/09/02 11:31:51;;;;;;;2.08;1.10;;;;;;;25.94;17.07;101040.78;5066054;28;20398;-78
2022/09/02 11:34:34;;;;;;;1.80;1.30;;;;;;;26.00;17.16;101027.78;5073286;28;20045;-78
2022/09/02 11:37:07;;;;;;;2.58;1.23;;;;;;;26.05;17.02;101018.69;5072199;28;20454;-79
2022/09/02 11:39:42;;;;;;;2.05;1.40;;;;;;;26.08;16.93;101016.28;5083193;28;20094;-79
2022/09/02 11:42:56;;;;;;;2.28;1.30;;;;;;;26.16;17.24;101034.75;5071998;28;20037;-78
2022/09/02 11:45:47;;;;;;;2.17;1.20;;;;;;;26.19;16.71;101018.31;5068756;28;20048;-78
2022/09/02 11:48:51;;;;;;;2.17;1.45;;;;;;;26.22;16.83;101019.78;5067279;28;20048;-80
2022/09/02 11:51:46;;;;;;;3.15;1.20;;;;;;;26.29;16.77;101017.78;5084800;28;20040;-79
2022/09/02 11:54:19;;;;;;;2.20;1.40;;;;;;;26.33;17.11;101008.66;5055805;28;20107;-79
2022/09/02 11:56:52;;;;;;;2.03;1.20;;;;;;;26.36;17.04;101016.59;5072968;28;20044;-78
2022/09/02 11:59:23;;;;;;;2.17;1.17;;;;;;;26.39;16.81;101013.31;5068272;28;20451;-79
2022/09/02 12:01:53;;;;;;;2.05;1.10;;;;;;;26.42;16.92;101003.56;5064754;28;20114;-79